Ride Results

Toongabbie Two Day (18-03-2011)
Ride distance: 80.0 km

Outcomes - Toongabbie Two Day (18-03-2011)
Division No. of Entries Retired / DNE Completed Withdrawn Ineligible V/O Percentage Completed
HW 10 - 7 1 - 2 70.00%
MW 18 - 14 2 - 2 77.78%
LW 8 - 8 - - - 100.00%
JN 2 - 1 - - 1 50.00%
Totals 38 - 30 3 - 5 78.95%
Results - Toongabbie Two Day (18-03-2011)
No. Rider Horse Place Time Leg Speeds Total
Km/Hr
H/R bpm
Heavyweight
82 Jarrod Robinson Splitters Creek Vienna 1 (BC) 5:15:00 14.9, 15.5 15.24 32, 45, 42 (Avg:43)
135 Tamara Atkinson Ransom Bartholemew 2 6:10:00 12.6, 13.3 12.97 37, 46, 52 (Avg:49)
187 Joanne Rees DJ 3 6:11:00 14.7, 11.5 12.94 39, 44, 46 (Avg:45)
781 Neil Gardner Rivergum Delight 4 6:36:00 12.2, 11.9 12.12 36, 40, 56 (Avg:48)
313 Dom Falcomer Dejabu 5 7:16:00 12.6, 9.7 11.01 37, 45, 48 (Avg:46)
7 Robert Punicki Kazoo Park Ausboin 5 7:16:00 12.6, 9.7 11.01 26, 38, 34 (Avg:36)
337 Allison Whitney Dunele 5 7:16:00 12.6, 9.7 11.01 34, 43, 48 (Avg:45)
4 Jennifer Green Cameo Goldfinger Heart Rate L2 0:00:00 14.6, 11.7 - 32, 48, 71 (Avg:59)
782 Ian Tytler Whyneemah Abu Heart Rate L2 0:00:00 11.9, 10.2 - 42, 42, 70 (Avg:56)
76 Russell Robinson Jayay Alishah Widthdrawn L1 0:00:00 - - 99, 47 (Avg:47)
Middleweight
215 Kim Fitzpatrick Cieanna 1 (BC) 4:27:00 18.6, 17.3 17.98 32, 40, 40 (Avg:40)
788 Talea Hasko-Stewart Blake's Heaven Venus 2 4:52:00 17.1, 15.7 16.44 40, 53, 54 (Avg:53)
10 Jennie Armistead Khamsin 3 4:54:00 18.6, 14.5 16.33 35, 38, 53 (Avg:45)
172 Michael Cadman A'landell Kwaint 4 5:07:00 17.1, 14.3 15.64 30, 43, 44 (Avg:43)
789 Annabelle Jacka Warrondi Illusion 5 6:12:00 13.1, 12.6 12.90 36, 48, 53 (Avg:50)
13 Linda Tanian Castlebar Djara 6 6:24:00 12.4, 12.4 12.50 39, 46, 51 (Avg:48)
84 Kristie Taprell Magic Glenn Khufu 6 6:24:00 12.4, 12.4 12.50 53, 42, 47 (Avg:44)
23 Brittnee D'Hondt Splitters Creek Angus 8 6:36:00 9.3, 17.1 12.12 34, 39, 52 (Avg:45)
210 Fiona Hodges Drumlin Moonfrost 8 6:36:00 12.2, 11.9 12.12 30, 42, 47 (Avg:44)
190 Tracey Stoneman Rowallan Nara 8 6:36:00 12.2, 11.9 12.12 34, 39, 43 (Avg:41)
56 Wendy Bootle Blue Bopp 11 6:38:00 12.4, 11.7 12.06 35, 42, 44 (Avg:43)
70 Fiona Passarin Illaroo Zuth 11 6:38:00 12.4, 11.7 12.06 48, 47, 50 (Avg:48)
790 Amanda Kettlewell Aloha Delilah 13 6:39:00 12.3, 11.7 12.03 15, 39, 44 (Avg:41)
77 Trish Reeves Destined For Dubai 14 7:16:00 12.6, 9.7 11.01 30, 42, 32 (Avg:37)
351 Steve Blackhurst Drumlin Hobart Lame L2 0:00:00 18.7, 14.8 - 36, 44, 45 (Avg:44)
17 Sallyann Duke Summerzar Nemesis Lame L2 0:00:00 13.2, 12.5 - 38, 42, 66 (Avg:54)
126 Wendy Riha Magic Glenn Viking Widthdrawn L2 0:00:00 - - 45, 48, 51 (Avg:49)
219 Caroline Noble Sandine Solero Widthdrawn L1 0:00:00 - - 38, 43 (Avg:43)
Lightweight
223 Nicole Whitehead Al Marah Cher Raid 1 (BC) 5:11:00 15.7, 15.0 15.43 37, 46, 54 (Avg:50)
183 Nicky Robinson Shuja Bint Melika 2 6:08:00 14.6, 11.7 13.04 26, 38, 38 (Avg:38)
29 Sandra Feil Saracus El Shaddai 3 6:14:00 13.1, 12.5 12.83 48, 49, 54 (Avg:51)
3 Caley Rees Michelle Mae 3 6:14:00 13.1, 12.5 12.83 41, 46, 57 (Avg:51)
91 Kim Noble Menora Moon Dance 5 6:22:00 12.4, 12.6 12.57 46, 48, 48 (Avg:48)
793 Linda Carney Joey 6 6:24:00 12.7, 12.2 12.50 44, 51, 0 (Avg:25)
791 Shelley Cowan Castlebar Kaos 6 6:24:00 12.4, 12.4 12.50 35, 42, 49 (Avg:45)
792 Elodie LeLabourier Castlebar Nico 6 6:24:00 12.4, 12.4 12.50 34, 42, 46 (Avg:44)
Junior
90 Samantha Noble Springridge Bungendore 1 (BC) 6:22:00 12.4, 12.6 12.57 28, 36, 46 (Avg:41)
149 Jenny Berg Candynae Heart Rate L2 0:00:00 13.6, 17.7 - 32, 50, 71 (Avg:60)